Time;durP1;ratioP1;P1;durP2;ratioP2;P2;SDS_P1;SDS_P2;PMS_P1;PMS_P2;Temp;Humidity;BMP_temperature;BMP_pressure;BME280_temperature;BME280_humidity;BME280_pressure;Samples;Min_cycle;Max_cycle;Signal;HPM_P1;HPM_P2
2022/08/19 00:01:29;;;;;;;4.43;4.13;;;24.10;70.30;24.60;95944.00;;;;5074352;28;20255;-81
2022/08/19 00:03:56;;;;;;;4.43;4.10;;;24.10;70.40;24.70;95958.00;;;;5054811;28;20195;-82
2022/08/19 00:06:24;;;;;;;4.33;4.03;;;24.10;70.40;24.70;95970.00;;;;5054947;28;20234;-82
2022/08/19 00:08:51;;;;;;;4.37;4.07;;;24.10;70.40;24.70;95967.00;;;;5054983;28;20225;-82
2022/08/19 00:11:20;;;;;;;4.43;4.10;;;24.10;70.40;24.70;95983.00;;;;5053884;28;20224;-81
2022/08/19 00:13:49;;;;;;;3.87;3.63;;;24.10;70.40;24.70;95992.00;;;;5054607;28;20317;-82
2022/08/19 00:16:18;;;;;;;3.43;3.23;;;24.20;70.50;24.70;95993.00;;;;5054171;28;20668;-82
2022/08/19 00:18:45;;;;;;;3.57;3.27;;;24.20;70.40;24.70;95986.00;;;;5054490;28;20706;-82
2022/08/19 00:21:12;;;;;;;3.70;3.50;;;24.20;70.30;24.80;95983.00;;;;5054395;28;20248;-82
2022/08/19 00:23:40;;;;;;;3.40;3.20;;;24.20;70.30;24.80;95983.00;;;;5054721;28;20199;-81
2022/08/19 00:26:08;;;;;;;3.70;3.40;;;24.20;70.20;24.80;95988.00;;;;5054228;28;20223;-82
2022/08/19 00:28:35;;;;;;;3.33;3.13;;;24.20;70.20;24.80;95985.00;;;;5053802;28;20285;-82
2022/08/19 00:31:05;;;;;;;3.30;3.10;;;24.20;70.10;24.70;95979.00;;;;5053755;28;20204;-82
2022/08/19 00:33:34;;;;;;;3.07;2.87;;;24.20;70.10;24.70;95971.00;;;;5054060;28;20227;-82
2022/08/19 00:36:04;;;;;;;3.17;2.97;;;24.20;70.10;24.70;95966.00;;;;5054812;28;20205;-81
2022/08/19 00:38:33;;;;;;;3.03;2.83;;;24.20;70.10;24.70;95947.00;;;;5055394;28;20201;-81
2022/08/19 00:41:00;;;;;;;3.20;3.00;;;24.20;70.10;24.70;95940.00;;;;5055034;28;20199;-82
2022/08/19 00:43:29;;;;;;;2.77;2.63;;;24.20;70.10;24.70;95934.00;;;;5055599;28;20258;-81
2022/08/19 00:45:56;;;;;;;3.03;2.83;;;24.10;69.90;24.70;95930.00;;;;5055259;28;20202;-81
2022/08/19 00:48:25;;;;;;;2.87;2.67;;;24.10;70.00;24.70;95943.00;;;;5054704;28;20734;-81
2022/08/19 00:50:55;;;;;;;2.67;2.53;;;24.10;70.00;24.70;95936.00;;;;5054471;28;20231;-81
2022/08/19 00:53:28;;;;;;;2.97;2.77;;;24.10;70.00;24.70;95939.00;;;;5055135;28;20201;-81
2022/08/19 00:56:00;;;;;;;3.00;2.77;;;24.10;70.00;24.60;95939.00;;;;5053837;28;20207;-81
2022/08/19 00:58:33;;;;;;;2.50;2.30;;;24.10;70.00;24.70;95937.00;;;;5053661;28;20224;-81
2022/08/19 01:01:01;;;;;;;2.83;2.63;;;24.10;70.10;24.70;95928.00;;;;5054002;28;20740;-81
2022/08/19 01:03:30;;;;;;;2.53;2.33;;;24.10;70.20;24.70;95921.00;;;;5072040;28;20205;-81
2022/08/19 01:05:57;;;;;;;2.77;2.57;;;24.10;70.20;24.70;95924.00;;;;5074177;28;20723;-81
2022/08/19 01:08:24;;;;;;;3.37;3.07;;;24.10;70.20;24.70;95934.00;;;;5076365;28;20196;-82
2022/08/19 01:10:58;;;;;;;2.80;2.60;;;24.10;70.10;24.70;95942.00;;;;5079459;28;20202;-81
2022/08/19 01:13:32;;;;;;;2.73;2.53;;;24.10;70.20;24.80;95948.00;;;;5078438;28;20648;-81
2022/08/19 01:16:05;;;;;;;3.20;3.00;;;24.20;70.30;24.80;95959.00;;;;5078148;28;20202;-81
2022/08/19 01:18:41;;;;;;;2.80;2.70;;;24.20;70.20;24.80;95963.00;;;;5078790;28;20180;-82
2022/08/19 01:21:18;;;;;;;2.87;2.67;;;24.20;70.30;24.80;95947.00;;;;5079308;28;20213;-82
2022/08/19 01:23:47;;;;;;;2.97;2.77;;;24.20;70.20;24.80;95944.00;;;;5079365;28;20199;-82
2022/08/19 01:26:19;;;;;;;3.17;2.97;;;24.20;70.10;24.80;95938.00;;;;5077831;28;20195;-82
2022/08/19 01:28:50;;;;;;;2.50;2.40;;;24.20;70.00;24.80;95948.00;;;;5079532;28;20677;-82
2022/08/19 01:33:53;;;;;;;2.97;2.80;;;24.20;70.10;24.80;95961.00;;;;5093362;28;20222;-87
2022/08/19 01:36:27;;;;;;;3.37;3.13;;;24.20;70.10;24.80;95972.00;;;;5094513;28;20238;-87
2022/08/19 01:38:57;;;;;;;3.33;3.07;;;24.20;70.30;24.70;95963.00;;;;5095266;28;20254;-86
2022/08/19 01:41:25;;;;;;;3.33;3.13;;;24.20;70.30;24.70;95962.00;;;;5095052;28;20225;-87
2022/08/19 01:43:53;;;;;;;3.17;2.97;;;24.20;70.20;24.70;95956.00;;;;5093821;28;20207;-87
2022/08/19 01:46:21;;;;;;;3.07;2.87;;;24.20;70.20;24.70;95959.00;;;;5095179;28;20249;-87
2022/08/19 01:48:48;;;;;;;3.33;3.13;;;24.20;70.20;24.70;95958.00;;;;5095043;28;20193;-86
2022/08/19 01:51:16;;;;;;;2.97;2.77;;;24.20;70.30;24.70;95955.00;;;;5094738;28;20230;-86
2022/08/19 01:53:43;;;;;;;3.00;2.80;;;24.20;70.30;24.70;95959.00;;;;5094183;28;20224;-87
2022/08/19 01:56:12;;;;;;;2.90;2.70;;;24.20;70.40;24.70;95961.00;;;;5094662;28;20246;-86
2022/08/19 01:58:46;;;;;;;3.13;2.93;;;24.20;70.50;24.70;95961.00;;;;5096556;28;20279;-86
2022/08/19 02:01:13;;;;;;;3.20;3.00;;;24.20;70.50;24.80;95961.00;;;;5097289;28;20215;-87
2022/08/19 02:03:41;;;;;;;3.20;3.00;;;24.20;70.50;24.70;95972.00;;;;5097090;28;20219;-86
2022/08/19 02:06:08;;;;;;;3.00;2.80;;;24.20;70.50;24.80;95984.00;;;;5095560;28;20194;-86
2022/08/19 02:08:39;;;;;;;3.17;2.97;;;24.20;70.50;24.80;95994.00;;;;5094967;28;20278;-86
2022/08/19 02:11:08;;;;;;;3.20;2.90;;;24.20;70.50;24.80;95995.00;;;;5094574;28;20240;-86
2022/08/19 02:13:36;;;;;;;3.00;2.80;;;24.20;70.50;24.80;95984.00;;;;5094323;28;20239;-86
2022/08/19 02:16:04;;;;;;;3.13;2.83;;;24.20;70.50;24.80;95966.00;;;;5094191;28;20222;-86
2022/08/19 02:18:31;;;;;;;3.00;2.80;;;24.20;70.50;24.80;95953.00;;;;5093433;28;20237;-86
2022/08/19 02:20:58;;;;;;;2.90;2.70;;;24.20;70.60;24.90;95952.00;;;;5092971;28;20225;-86
2022/08/19 02:23:26;;;;;;;3.23;3.03;;;24.20;70.60;24.90;95973.00;;;;5094550;28;20267;-87
2022/08/19 02:25:54;;;;;;;2.93;2.73;;;24.20;70.60;24.90;95976.00;;;;5093947;28;20466;-86
2022/08/19 02:28:21;;;;;;;3.07;2.87;;;24.30;70.70;24.90;95980.00;;;;5093535;28;20303;-86
2022/08/19 02:30:49;;;;;;;3.33;3.13;;;24.30;70.60;24.90;95983.00;;;;5094042;28;20227;-86
2022/08/19 02:33:17;;;;;;;3.10;2.90;;;24.30;70.70;24.90;95979.00;;;;5094126;28;20240;-86
2022/08/19 02:35:46;;;;;;;2.43;2.33;;;24.30;70.60;25.00;95971.00;;;;5094155;28;20222;-86
2022/08/19 02:38:25;;;;;;;3.17;2.97;;;24.30;70.60;25.00;95978.00;;;;5094160;28;20287;-86
2022/08/19 02:40:55;;;;;;;2.73;2.53;;;24.30;70.50;25.00;95982.00;;;;5093931;28;20298;-87
2022/08/19 02:43:25;;;;;;;2.90;2.63;;;24.30;70.50;25.00;95986.00;;;;5094295;28;20238;-87
2022/08/19 02:45:55;;;;;;;2.70;2.60;;;24.30;70.40;25.00;95986.00;;;;5093564;28;20207;-87
2022/08/19 02:48:25;;;;;;;2.70;2.57;;;24.30;70.40;25.00;95990.00;;;;5094122;28;20200;-86
2022/08/19 02:50:54;;;;;;;2.33;2.17;;;24.30;70.40;25.00;95995.00;;;;5094101;28;20284;-86
2022/08/19 02:53:23;;;;;;;2.40;2.30;;;24.30;70.30;25.00;95986.00;;;;5093204;28;20257;-86
2022/08/19 02:55:51;;;;;;;2.27;2.17;;;24.30;70.40;25.00;95978.00;;;;5093256;28;20231;-86
2022/08/19 02:58:20;;;;;;;2.07;1.97;;;24.40;70.40;24.90;95961.00;;;;5093680;28;20206;-86
2022/08/19 03:00:51;;;;;;;2.20;2.00;;;24.30;70.20;24.90;95954.00;;;;5093470;28;20572;-86
2022/08/19 03:03:21;;;;;;;1.80;1.70;;;24.30;70.20;24.90;95956.00;;;;5092625;28;20287;-86
2022/08/19 03:05:48;;;;;;;2.03;1.93;;;24.40;70.40;24.90;95951.00;;;;5093510;28;20628;-86
2022/08/19 03:08:16;;;;;;;1.70;1.60;;;24.30;70.20;24.90;95943.00;;;;5093390;28;20226;-86
2022/08/19 03:10:46;;;;;;;1.70;1.60;;;24.30;70.30;24.80;95949.00;;;;5093262;28;20566;-87
2022/08/19 03:13:16;;;;;;;1.70;1.60;;;24.30;70.40;24.90;95952.00;;;;5093183;28;20296;-86
2022/08/19 03:15:47;;;;;;;1.30;1.30;;;24.30;70.40;24.80;95947.00;;;;5092658;28;20244;-87
2022/08/19 03:18:16;;;;;;;1.50;1.40;;;24.30;70.50;24.90;95943.00;;;;5093270;28;20626;-86
2022/08/19 03:20:47;;;;;;;1.60;1.50;;;24.30;70.40;24.90;95942.00;;;;5093246;28;20202;-86
2022/08/19 03:23:15;;;;;;;1.70;1.40;;;24.30;70.60;24.90;95954.00;;;;5093138;28;20277;-86
2022/08/19 03:25:46;;;;;;;1.73;1.50;;;24.30;70.50;24.90;95958.00;;;;5092659;28;20622;-86
2022/08/19 03:28:16;;;;;;;1.37;1.27;;;24.30;70.60;24.90;95963.00;;;;5092054;28;20253;-86
2022/08/19 03:30:55;;;;;;;1.53;1.43;;;24.30;70.60;24.90;95964.00;;;;5092740;28;20229;-87
2022/08/19 03:33:24;;;;;;;1.60;1.50;;;24.30;70.60;24.90;95960.00;;;;5092477;28;20562;-87
2022/08/19 03:36:05;;;;;;;1.40;1.30;;;24.30;70.50;24.90;95970.00;;;;5092481;28;20257;-86
2022/08/19 03:38:33;;;;;;;1.73;1.63;;;24.30;70.80;24.90;95971.00;;;;5092268;28;20603;-86
2022/08/19 03:41:06;;;;;;;1.87;1.77;;;24.30;70.50;24.90;95974.00;;;;5092622;28;20302;-87
2022/08/19 03:43:34;;;;;;;1.70;1.60;;;24.30;70.70;24.80;95975.00;;;;5092448;28;20201;-86
2022/08/19 03:46:05;;;;;;;3.47;1.90;;;24.30;70.70;24.80;95962.00;;;;5092173;28;20232;-87
2022/08/19 03:48:33;;;;;;;1.60;1.50;;;24.30;70.70;24.80;95976.00;;;;5092554;28;20202;-86
2022/08/19 03:51:03;;;;;;;2.00;1.40;;;24.20;70.70;24.80;95971.00;;;;5091942;28;20242;-87
2022/08/19 03:53:33;;;;;;;1.67;1.57;;;24.20;70.70;24.80;95978.00;;;;5092463;28;20641;-87
2022/08/19 03:56:01;;;;;;;2.77;1.80;;;24.20;70.70;24.80;95974.00;;;;5092026;28;20307;-87
2022/08/19 03:58:30;;;;;;;1.87;1.77;;;24.20;70.80;24.70;95979.00;;;;5092446;28;20630;-87
2022/08/19 04:00:58;;;;;;;1.83;1.67;;;24.20;70.90;24.80;95979.00;;;;5092293;28;20265;-88
2022/08/19 04:03:26;;;;;;;1.83;1.73;;;24.20;71.00;24.80;95978.00;;;;5091277;28;20231;-87
2022/08/19 04:05:54;;;;;;;2.10;1.90;;;24.20;71.10;24.80;95982.00;;;;5091922;28;20654;-87
2022/08/19 04:08:22;;;;;;;1.77;1.67;;;24.20;71.10;24.80;95983.00;;;;5091875;28;20292;-87
2022/08/19 04:10:50;;;;;;;2.63;2.43;;;24.20;71.10;24.80;95986.00;;;;5092174;28;20249;-87
2022/08/19 04:13:19;;;;;;;2.40;2.30;;;24.20;71.10;24.80;95987.00;;;;5090964;28;20207;-87
2022/08/19 04:15:47;;;;;;;3.53;2.10;;;24.20;71.10;24.80;95976.00;;;;5091169;28;20688;-87
2022/08/19 04:18:15;;;;;;;2.40;2.30;;;24.20;71.20;24.80;95970.00;;;;5092022;28;20234;-89
2022/08/19 04:20:45;;;;;;;2.80;2.53;;;24.20;71.10;24.80;95960.00;;;;5092755;28;20614;-89
2022/08/19 04:23:13;;;;;;;2.63;2.43;;;24.20;71.20;24.80;95973.00;;;;5091812;28;20190;-90
2022/08/19 04:25:45;;;;;;;2.33;2.13;;;24.20;71.10;24.80;95966.00;;;;5091795;28;20289;-91
2022/08/19 04:28:13;;;;;;;2.63;2.43;;;24.20;71.20;24.90;95979.00;;;;5091979;28;20681;-89
2022/08/19 04:30:44;;;;;;;2.70;2.50;;;24.20;71.10;24.90;95980.00;;;;5099572;28;20226;-90
2022/08/19 04:33:13;;;;;;;2.73;2.53;;;24.20;71.10;24.90;95976.00;;;;5095582;28;20711;-90
2022/08/19 04:35:44;;;;;;;2.90;2.70;;;24.30;71.20;24.90;95966.00;;;;5091576;28;20237;-89
2022/08/19 04:38:12;;;;;;;2.70;2.53;;;24.30;71.30;24.90;95964.00;;;;5091077;28;20279;-90
2022/08/19 04:43:29;;;;;;;2.70;2.53;;;24.30;71.30;25.00;95978.00;;;;5091208;28;20569;-90
2022/08/19 04:45:57;;;;;;;2.80;2.60;;;24.30;71.10;25.00;95986.00;;;;5091279;28;20229;-91
2022/08/19 04:48:26;;;;;;;2.80;2.60;;;24.30;71.10;25.00;95993.00;;;;5090635;28;20192;-90
2022/08/19 04:50:57;;;;;;;3.07;2.87;;;24.30;71.10;25.00;95999.00;;;;5091963;28;20258;-89
2022/08/19 04:53:28;;;;;;;3.30;3.00;;;24.30;71.10;25.00;96005.00;;;;5092549;28;20277;-90
2022/08/19 04:55:58;;;;;;;2.67;2.50;;;24.30;71.00;25.00;96000.00;;;;5091628;28;20256;-90
2022/08/19 04:58:28;;;;;;;2.30;2.20;;;24.30;71.10;25.00;96016.00;;;;5093979;28;20200;-90
2022/08/19 05:00:55;;;;;;;3.27;2.97;;;24.30;71.00;25.00;96010.00;;;;5091991;28;20228;-89
2022/08/19 05:03:22;;;;;;;2.67;2.50;;;24.30;71.10;25.00;96014.00;;;;5092197;28;20224;-90
2022/08/19 05:05:50;;;;;;;3.20;3.00;;;24.30;71.00;25.10;96015.00;;;;5106458;28;20196;-90
2022/08/19 05:08:22;;;;;;;3.33;3.13;;;24.30;71.10;25.10;96018.00;;;;5105599;28;20574;-89
2022/08/19 05:10:52;;;;;;;3.60;3.27;;;24.40;71.30;25.10;96021.00;;;;5093016;28;20527;-90
2022/08/19 05:13:20;;;;;;;3.67;2.87;;;24.40;71.10;25.10;96017.00;;;;5093377;28;20675;-89
2022/08/19 05:15:59;;;;;;;3.20;3.00;;;24.40;71.20;25.10;96023.00;;;;5094673;28;20281;-88
2022/08/19 05:24:03;;;;;;;3.00;2.80;;;24.40;71.10;25.20;96034.00;;;;5092468;28;20247;-90
2022/08/19 05:26:30;;;;;;;3.67;3.43;;;24.40;71.00;25.20;96032.00;;;;5092177;28;20240;-89
2022/08/19 05:28:59;;;;;;;3.47;3.17;;;24.40;71.00;25.20;96029.00;;;;5091667;28;20214;-89
2022/08/19 05:31:26;;;;;;;3.50;3.30;;;24.40;71.00;25.20;96026.00;;;;5089976;28;20212;-89
2022/08/19 05:33:53;;;;;;;3.20;3.00;;;24.40;70.90;25.20;96025.00;;;;5070858;28;20226;-89
2022/08/19 05:36:20;;;;;;;3.87;3.57;;;24.50;71.00;25.20;96031.00;;;;5070350;28;20211;-89
2022/08/19 05:38:49;;;;;;;4.40;4.07;;;24.50;70.90;25.20;96024.00;;;;5070860;28;20640;-90
2022/08/19 05:41:17;;;;;;;3.97;3.67;;;24.50;70.80;25.20;96023.00;;;;5070741;28;20715;-90
2022/08/19 05:43:44;;;;;;;3.67;3.43;;;24.50;70.80;25.20;96023.00;;;;5071054;28;20207;-90
2022/08/19 05:46:18;;;;;;;3.90;3.60;;;24.50;70.80;25.20;96023.00;;;;5070152;28;20661;-90
2022/08/19 05:48:46;;;;;;;4.03;3.67;;;24.50;70.90;25.20;96020.00;;;;5071176;28;20220;-90
2022/08/19 05:51:14;;;;;;;4.30;4.00;;;24.50;70.80;25.20;96020.00;;;;5070818;28;20250;-89
2022/08/19 05:53:41;;;;;;;4.13;3.83;;;24.50;70.70;25.20;96017.00;;;;5070934;28;20686;-90
2022/08/19 05:56:12;;;;;;;4.07;3.77;;;24.50;71.40;25.20;96012.00;;;;5073099;28;20254;-89
2022/08/19 05:58:41;;;;;;;4.00;3.73;;;24.60;70.70;25.20;96013.00;;;;5074714;28;20580;-90
2022/08/19 06:01:15;;;;;;;4.23;3.93;;;24.50;70.60;25.20;96015.00;;;;5074449;28;20211;-90
2022/08/19 06:03:43;;;;;;;4.37;4.07;;;24.60;70.70;25.20;96005.00;;;;5094506;28;20214;-90
2022/08/19 06:06:13;;;;;;;4.40;4.00;;;24.60;71.40;25.20;96007.00;;;;5094473;28;20591;-90
2022/08/19 06:08:42;;;;;;;4.53;4.23;;;24.50;70.70;25.20;96006.00;;;;5094933;28;20240;-89
2022/08/19 06:11:20;;;;;;;4.40;4.10;;;24.60;70.80;25.30;96002.00;;;;5094777;28;20300;-89
2022/08/19 06:13:50;;;;;;;4.23;3.93;;;24.60;70.80;25.20;96005.00;;;;5094458;28;20759;-90
2022/08/19 06:16:22;;;;;;;5.13;4.73;;;24.60;70.70;25.30;96002.00;;;;5093963;28;20565;-89
2022/08/19 06:18:52;;;;;;;5.37;4.90;;;24.60;70.60;25.20;96008.00;;;;5093983;28;20183;-89
2022/08/19 06:21:20;;;;;;;4.83;4.43;;;24.50;70.50;25.20;96012.00;;;;5094248;28;20726;-90
2022/08/19 06:23:48;;;;;;;5.20;4.80;;;24.60;70.60;25.20;96016.00;;;;5093980;28;20551;-89
2022/08/19 06:26:16;;;;;;;4.97;4.57;;;24.50;70.50;25.20;96028.00;;;;5094404;28;20209;-90
2022/08/19 06:28:46;;;;;;;5.37;4.87;;;24.50;70.50;25.20;96028.00;;;;5094777;28;20647;-90
2022/08/19 06:31:15;;;;;;;5.70;5.03;;;24.50;70.60;25.20;96023.00;;;;5094450;28;20220;-90
2022/08/19 06:33:46;;;;;;;5.33;4.83;;;24.50;70.60;25.20;96031.00;;;;5075558;28;20262;-89
2022/08/19 06:36:20;;;;;;;5.17;4.77;;;24.50;70.70;25.20;96040.00;;;;5092794;28;20778;-89
2022/08/19 06:38:47;;;;;;;5.70;5.20;;;24.50;70.80;25.20;96046.00;;;;5094101;28;20191;-89
2022/08/19 06:41:15;;;;;;;5.60;5.03;;;24.50;70.70;25.20;96033.00;;;;5093976;28;20596;-89
2022/08/19 06:43:42;;;;;;;5.80;5.27;;;24.50;70.70;25.20;96031.00;;;;5093869;28;20198;-89
2022/08/19 06:46:16;;;;;;;5.83;5.33;;;24.50;70.70;25.20;96024.00;;;;5093781;28;20555;-89
2022/08/19 06:48:45;;;;;;;5.60;5.20;;;24.50;70.70;25.20;96022.00;;;;5093939;28;20671;-88
2022/08/19 06:51:15;;;;;;;6.40;5.80;;;24.50;70.60;25.20;96021.00;;;;5093873;28;20241;-89
2022/08/19 06:53:46;;;;;;;5.63;5.17;;;24.50;70.70;25.20;96018.00;;;;5094021;28;20196;-90
2022/08/19 06:56:15;;;;;;;5.40;4.90;;;24.50;70.90;25.20;96028.00;;;;5093627;28;20665;-90
2022/08/19 06:58:42;;;;;;;5.27;4.87;;;24.60;71.40;25.20;96027.00;;;;5093754;28;20222;-89
2022/08/19 07:01:11;;;;;;;5.63;4.70;;;24.50;71.50;25.20;96028.00;;;;5093746;28;20299;-90
2022/08/19 07:03:39;;;;;;;6.27;5.77;;;24.50;71.70;25.20;96030.00;;;;5092909;28;20231;-89
2022/08/19 07:06:12;;;;;;;5.87;5.27;;;24.50;71.90;25.20;96033.00;;;;5092781;28;20243;-89
2022/08/19 07:08:40;;;;;;;6.50;5.87;;;24.50;72.10;25.20;96033.00;;;;5094072;28;20234;-89
2022/08/19 07:11:09;;;;;;;5.80;5.40;;;24.50;72.10;25.20;96030.00;;;;5093707;28;20303;-89
2022/08/19 07:13:38;;;;;;;6.00;5.57;;;24.50;72.20;25.20;96030.00;;;;5092777;28;20244;-89
2022/08/19 07:16:07;;;;;;;6.40;5.90;;;24.50;72.20;25.20;96037.00;;;;5093159;28;20694;-89
2022/08/19 07:18:35;;;;;;;6.73;6.13;;;24.50;72.30;25.20;96030.00;;;;5092942;28;20238;-89
2022/08/19 07:21:09;;;;;;;6.60;6.00;;;24.50;72.30;25.20;96030.00;;;;5092417;28;20219;-89
2022/08/19 07:23:37;;;;;;;7.13;6.50;;;24.50;72.80;25.20;96031.00;;;;5092585;28;20194;-89
2022/08/19 07:26:07;;;;;;;6.23;5.73;;;24.50;72.70;25.20;96027.00;;;;5091922;28;20228;-90
2022/08/19 07:28:35;;;;;;;7.53;6.90;;;24.50;72.90;25.20;96021.00;;;;5093001;28;20202;-89
2022/08/19 07:31:03;;;;;;;7.00;6.40;;;24.50;72.90;25.30;96032.00;;;;5092274;28;20266;-90
2022/08/19 07:33:32;;;;;;;7.23;6.53;;;24.50;73.10;25.30;96023.00;;;;5091726;28;20312;-89
2022/08/19 07:35:59;;;;;;;7.27;6.57;;;24.50;73.30;25.30;96020.00;;;;5091101;28;20222;-90
2022/08/19 07:38:28;;;;;;;7.10;6.50;;;24.50;73.40;25.30;96008.00;;;;5091446;28;20705;-89
2022/08/19 07:40:55;;;;;;;7.53;6.83;;;24.50;73.40;25.40;96004.00;;;;5091149;28;20252;-90
2022/08/19 07:43:26;;;;;;;7.53;6.83;;;24.60;73.60;25.40;96004.00;;;;5091441;28;20676;-89
2022/08/19 07:45:55;;;;;;;8.53;7.23;;;24.60;73.90;25.50;95998.00;;;;5106880;22;20208;-89
2022/08/19 07:48:25;;;;;;;8.77;7.93;;;24.60;73.70;25.50;95991.00;;;;5092708;28;20256;-89
2022/08/19 07:50:54;;;;;;;7.93;7.23;;;24.70;73.90;25.60;95995.00;;;;5092505;28;20205;-87
2022/08/19 07:53:22;;;;;;;8.07;7.33;;;24.70;74.10;25.70;96004.00;;;;5092848;28;20230;-89
2022/08/19 07:55:51;;;;;;;9.27;8.33;;;24.70;73.90;25.70;96013.00;;;;5107065;28;20218;-85
2022/08/19 07:58:21;;;;;;;9.87;8.10;;;24.80;73.70;25.70;96009.00;;;;5095138;28;20238;-87
2022/08/19 08:00:50;;;;;;;8.73;7.83;;;24.80;73.70;25.70;95997.00;;;;5092341;28;20241;-88
2022/08/19 08:09:10;;;;;;;8.77;7.87;;;24.80;73.60;25.70;95994.00;;;;5091876;28;20241;-89
2022/08/19 08:09:12;;;;;;;7.77;7.07;;;24.90;73.50;25.70;96000.00;;;;5092160;28;20593;-89
2022/08/19 08:11:48;;;;;;;8.47;7.57;;;24.90;73.30;25.70;96003.00;;;;5092228;28;20243;-88
2022/08/19 08:14:17;;;;;;;8.70;7.80;;;24.90;73.10;25.70;95990.00;;;;5092356;28;20220;-88
2022/08/19 08:16:46;;;;;;;8.93;8.03;;;24.90;73.20;25.70;95992.00;;;;5093497;28;20227;-89
2022/08/19 08:19:15;;;;;;;9.07;8.17;;;24.90;73.50;25.70;95986.00;;;;5092859;28;20217;-88
2022/08/19 08:21:43;;;;;;;9.63;8.17;;;24.90;73.50;25.80;95979.00;;;;5093677;28;20295;-88
2022/08/19 08:24:12;;;;;;;10.03;8.53;;;24.90;73.60;25.80;95971.00;;;;5092549;28;20256;-89
2022/08/19 08:26:41;;;;;;;9.13;8.30;;;24.90;73.60;25.80;95970.00;;;;5092395;28;20223;-89
2022/08/19 08:29:11;;;;;;;9.67;8.77;;;25.00;73.50;25.80;95972.00;;;;5092091;28;20191;-87
2022/08/19 08:31:38;;;;;;;9.53;8.60;;;25.00;73.50;25.80;95967.00;;;;5091366;28;20554;-89
2022/08/19 08:34:05;;;;;;;10.43;9.43;;;25.00;73.50;25.90;95976.00;;;;5092102;28;20224;-88
2022/08/19 08:36:33;;;;;;;8.70;7.80;;;25.00;73.60;25.90;95986.00;;;;5070065;28;20664;-87
2022/08/19 08:39:01;;;;;;;10.67;8.57;;;25.10;73.80;25.90;95995.00;;;;5071541;28;20299;-89
2022/08/19 08:41:37;;;;;;;9.17;8.23;;;25.10;73.80;26.00;95991.00;;;;5071350;28;20716;-89
2022/08/19 08:44:07;;;;;;;9.10;8.20;;;25.10;73.70;26.00;95998.00;;;;5071446;28;20210;-89
2022/08/19 08:46:40;;;;;;;8.83;8.03;;;25.10;73.50;26.00;96012.00;;;;5071125;28;20292;-87
2022/08/19 08:49:25;;;;;;;9.17;8.27;;;25.20;73.60;26.00;96017.00;;;;5071731;28;20199;-90
2022/08/19 08:52:01;;;;;;;8.13;7.23;;;25.20;73.70;26.00;96022.00;;;;5071369;28;20204;-88
2022/08/19 08:54:36;;;;;;;9.33;8.13;;;25.20;73.30;26.00;96022.00;;;;5071470;28;20295;-89
2022/08/19 08:57:12;;;;;;;10.97;8.00;;;25.20;73.10;26.00;96030.00;;;;5071360;28;20413;-89
2022/08/19 08:59:44;;;;;;;8.07;7.27;;;25.20;72.90;26.00;96037.00;;;;5072044;28;20199;-89
2022/08/19 09:02:11;;;;;;;8.00;7.30;;;25.20;72.80;25.90;96041.00;;;;5077577;28;20271;-89
2022/08/19 09:04:39;;;;;;;8.50;7.53;;;25.20;72.50;25.90;96038.00;;;;5091578;28;20252;-89
2022/08/19 09:07:32;;;;;;;8.40;7.57;;;25.20;72.50;25.90;96044.00;;;;5091070;28;20232;-88
2022/08/19 09:10:10;;;;;;;9.60;8.60;;;25.20;73.00;25.90;96036.00;;;;5091427;28;20237;-88
2022/08/19 09:12:54;;;;;;;8.97;8.03;;;25.20;72.70;25.90;96043.00;;;;5090622;28;20284;-89
2022/08/19 09:15:32;;;;;;;8.40;7.63;;;25.20;72.70;25.80;96044.00;;;;5090960;28;20204;-89
2022/08/19 09:18:03;;;;;;;9.77;8.27;;;25.10;72.80;25.80;96039.00;;;;5090749;28;20756;-89
2022/08/19 09:20:31;;;;;;;9.53;8.60;;;25.10;72.60;25.80;96040.00;;;;5091509;28;20209;-89
2022/08/19 09:22:59;;;;;;;10.00;8.93;;;25.10;72.70;25.80;96042.00;;;;5091114;28;20210;-91
2022/08/19 09:25:27;;;;;;;10.90;9.73;;;25.10;72.90;25.80;96049.00;;;;5091099;28;20200;-90
2022/08/19 09:27:56;;;;;;;9.93;8.90;;;25.10;73.10;25.80;96051.00;;;;5091195;28;20258;-87
2022/08/19 09:30:28;;;;;;;11.30;9.43;;;25.10;73.20;25.70;96053.00;;;;5094560;28;20573;-87
2022/08/19 09:32:55;;;;;;;10.47;9.37;;;25.10;73.50;25.70;96050.00;;;;5095408;28;20685;-89
2022/08/19 09:35:27;;;;;;;10.13;9.03;;;25.00;73.40;25.70;96046.00;;;;5094657;28;20636;-89
2022/08/19 09:37:54;;;;;;;10.70;9.53;;;25.00;73.80;25.70;96042.00;;;;5093894;28;20775;-87
2022/08/19 09:40:21;;;;;;;12.37;10.07;;;25.00;73.90;25.60;96043.00;;;;5094972;28;20207;-88
2022/08/19 09:42:49;;;;;;;12.83;9.87;;;24.90;74.10;25.60;96040.00;;;;5095030;28;20230;-88
2022/08/19 09:45:17;;;;;;;12.17;10.03;;;24.90;74.30;25.60;96039.00;;;;5094395;28;20218;-88
2022/08/19 09:47:45;;;;;;;11.03;9.47;;;24.90;74.40;25.60;96045.00;;;;5093647;28;20321;-88
2022/08/19 09:50:14;;;;;;;11.40;10.10;;;24.90;74.60;25.60;96046.00;;;;5094790;28;20284;-88
2022/08/19 09:52:41;;;;;;;12.73;10.33;;;24.90;74.50;25.50;96040.00;;;;5094210;28;20197;-89
2022/08/19 09:55:11;;;;;;;11.50;10.20;;;24.80;74.40;25.50;96039.00;;;;5094293;28;20659;-89
2022/08/19 09:57:39;;;;;;;11.67;10.03;;;24.80;74.70;25.50;96042.00;;;;5094452;28;20223;-88
2022/08/19 10:00:10;;;;;;;12.20;10.70;;;24.80;75.00;25.50;96046.00;;;;5094313;28;20311;-87
2022/08/19 10:02:37;;;;;;;10.97;9.87;;;24.80;75.70;25.50;96038.00;;;;5094272;28;20209;-87
2022/08/19 10:07:51;;;;;;;11.17;9.97;;;24.70;76.70;25.50;96045.00;;;;5094510;28;20216;-86
2022/08/19 10:10:20;;;;;;;11.60;10.40;;;24.70;76.90;25.50;96043.00;;;;5093860;28;20294;-86
2022/08/19 10:12:48;;;;;;;13.53;10.57;;;24.70;77.40;25.50;96043.00;;;;5093214;28;20294;-86
2022/08/19 10:15:16;;;;;;;9.90;8.90;;;24.70;77.80;25.50;96045.00;;;;5093720;28;20209;-86
2022/08/19 10:17:43;;;;;;;10.20;9.20;;;24.70;78.00;25.50;96043.00;;;;5093982;28;20754;-86
2022/08/19 10:20:12;;;;;;;9.83;8.93;;;24.70;78.10;25.50;96048.00;;;;5094649;28;20298;-86
2022/08/19 10:22:41;;;;;;;9.00;8.10;;;24.70;78.50;25.50;96053.00;;;;5094563;28;20202;-86
2022/08/19 10:25:09;;;;;;;8.87;7.97;;;24.70;78.80;25.50;96055.00;;;;5094029;28;20204;-85
2022/08/19 10:27:37;;;;;;;10.33;8.30;;;24.60;78.90;25.50;96054.00;;;;5100027;28;20227;-86
2022/08/19 10:30:06;;;;;;;8.50;7.70;;;24.70;79.20;25.60;96055.00;;;;5093866;28;20198;-86
2022/08/19 10:32:33;;;;;;;8.50;7.70;;;24.70;79.30;25.60;96051.00;;;;5093637;28;20200;-86
2022/08/19 10:35:01;;;;;;;7.47;6.70;;;24.70;79.10;25.70;96056.00;;;;5093330;28;20201;-87
2022/08/19 10:37:30;;;;;;;6.87;6.30;;;24.70;78.90;25.70;96053.00;;;;5093580;28;20739;-87
2022/08/19 10:39:57;;;;;;;6.57;5.97;;;24.80;79.30;25.80;96051.00;;;;5093486;28;20200;-87
2022/08/19 10:42:24;;;;;;;6.60;6.00;;;24.80;79.50;25.80;96049.00;;;;5092938;28;20227;-87
2022/08/19 10:44:51;;;;;;;6.33;5.73;;;24.90;79.60;25.90;96043.00;;;;5093460;28;20203;-85
2022/08/19 10:47:20;;;;;;;6.00;5.50;;;24.90;79.20;25.90;96047.00;;;;5093214;28;20227;-86
2022/08/19 10:52:36;;;;;;;5.57;5.17;;;25.00;79.30;26.10;96024.00;;;;5093559;28;20214;-85
2022/08/19 10:57:53;;;;;;;4.03;3.73;;;25.20;79.40;26.40;96037.00;;;;5085463;28;20696;-88
2022/08/19 11:00:22;;;;;;;4.50;4.20;;;25.30;78.80;26.50;96045.00;;;;5093463;28;20285;-88
2022/08/19 11:02:50;;;;;;;4.57;4.23;;;25.30;78.30;26.50;96038.00;;;;5093673;28;20260;-88
2022/08/19 11:05:17;;;;;;;4.10;3.80;;;25.40;78.20;26.50;96030.00;;;;5093596;28;20230;-88
2022/08/19 11:07:46;;;;;;;4.47;4.17;;;25.40;77.50;26.50;96034.00;;;;5093541;28;20591;-88
2022/08/19 11:10:18;;;;;;;4.03;3.77;;;25.50;77.20;26.50;96027.00;;;;5093842;28;20191;-87
2022/08/19 11:12:47;;;;;;;4.13;3.83;;;25.60;77.20;26.50;96032.00;;;;5093699;28;20206;-89
2022/08/19 11:15:15;;;;;;;5.30;4.90;;;25.60;77.00;26.50;96029.00;;;;5092806;28;20213;-88
2022/08/19 11:17:43;;;;;;;5.70;5.20;;;25.60;77.00;26.60;96025.00;;;;5093147;28;20219;-89
2022/08/19 11:20:12;;;;;;;6.03;5.53;;;25.60;77.20;26.60;96018.00;;;;5093798;28;20237;-90
2022/08/19 11:22:40;;;;;;;6.37;5.87;;;25.60;77.20;26.70;96022.00;;;;5093763;28;20233;-88
2022/08/19 11:25:11;;;;;;;6.27;5.77;;;25.70;76.90;26.80;96027.00;;;;5094731;28;20651;-89